Ribera, New Mexico
Current Conditions -  °F | °C
As of 5:53 PM on Friday 19 Dec 2014 (Local Time) from KLVS Reporting Station
Clear Clear  
Wind Chill: 19°   Ceiling: Unl
Heat Index: 29°   Visibility: 10mi
Dew Point: 13°   Wind: 12mph
Humidity: 51%   Direction: 150°SSE
Pressure: 30.06"   Gusts: NA
Location:  35.38°N, 105.45°W
Report Text: KLVS 200053Z AUTO 15010KT 10SM CLR M02/M11 A3006 RMK AO2 SLP185 T10171106
Loading
Personal Weather Stations






























Interactive Weather Map New forecast layout! Learn more

10-Day Weather Forecast

Advertisements
Track Severe Weather on mobile